sensor_id;sensor_type;location;lat;lon;timestamp;temperature;humidity
5118;DHT22;2578;51.622;7.046;2022-09-17T00:00:32;10.30;99.90
5118;DHT22;2578;51.622;7.046;2022-09-17T00:02:57;11.70;99.90
5118;DHT22;2578;51.622;7.046;2022-09-17T00:05:23;10.30;99.90
5118;DHT22;2578;51.622;7.046;2022-09-17T00:07:50;10.20;99.90
5118;DHT22;2578;51.622;7.046;2022-09-17T00:10:17;10.10;99.90
5118;DHT22;2578;51.622;7.046;2022-09-17T00:12:44;10.10;99.90
5118;DHT22;2578;51.622;7.046;2022-09-17T00:15:10;10.00;99.90
5118;DHT22;2578;51.622;7.046;2022-09-17T00:20:05;10.00;99.90
5118;DHT22;2578;51.622;7.046;2022-09-17T00:22:34;10.00;99.90
5118;DHT22;2578;51.622;7.046;2022-09-17T00:25:00;10.20;99.90
5118;DHT22;2578;51.622;7.046;2022-09-17T00:27:26;10.00;99.90
5118;DHT22;2578;51.622;7.046;2022-09-17T00:29:52;10.00;99.90
5118;DHT22;2578;51.622;7.046;2022-09-17T00:32:17;10.10;99.90
5118;DHT22;2578;51.622;7.046;2022-09-17T00:34:43;10.10;99.90
5118;DHT22;2578;51.622;7.046;2022-09-17T00:37:08;11.70;99.90
5118;DHT22;2578;51.622;7.046;2022-09-17T00:39:34;10.10;99.90
5118;DHT22;2578;51.622;7.046;2022-09-17T00:41:59;10.00;99.90
5118;DHT22;2578;51.622;7.046;2022-09-17T00:44:48;9.90;99.90
5118;DHT22;2578;51.622;7.046;2022-09-17T00:47:19;10.00;99.90
5118;DHT22;2578;51.622;7.046;2022-09-17T00:49:46;9.20;99.90
5118;DHT22;2578;51.622;7.046;2022-09-17T00:52:27;12.10;99.90
5118;DHT22;2578;51.622;7.046;2022-09-17T00:55:05;11.80;99.90
5118;DHT22;2578;51.622;7.046;2022-09-17T00:57:32;10.70;99.90
5118;DHT22;2578;51.622;7.046;2022-09-17T00:59:58;9.70;99.90
5118;DHT22;2578;51.622;7.046;2022-09-17T01:02:24;10.50;99.90
5118;DHT22;2578;51.622;7.046;2022-09-17T01:04:50;9.70;99.90
5118;DHT22;2578;51.622;7.046;2022-09-17T01:18:03;9.70;99.90
5118;DHT22;2578;51.622;7.046;2022-09-17T01:29:09;9.60;99.90
5118;DHT22;2578;51.622;7.046;2022-09-17T01:34:19;9.60;99.90
5118;DHT22;2578;51.622;7.046;2022-09-17T01:39:55;9.60;99.90
5118;DHT22;2578;51.622;7.046;2022-09-17T01:45:11;9.60;99.90
5118;DHT22;2578;51.622;7.046;2022-09-17T01:47:58;9.70;99.90
5118;DHT22;2578;51.622;7.046;2022-09-17T01:50:31;9.80;99.90
5118;DHT22;2578;51.622;7.046;2022-09-17T01:52:58;9.70;99.90
5118;DHT22;2578;51.622;7.046;2022-09-17T01:55:28;9.80;99.90
5118;DHT22;2578;51.622;7.046;2022-09-17T01:58:01;11.30;99.90
5118;DHT22;2578;51.622;7.046;2022-09-17T02:00:28;9.90;99.90
5118;DHT22;2578;51.622;7.046;2022-09-17T02:03:02;9.90;99.90
5118;DHT22;2578;51.622;7.046;2022-09-17T02:05:41;9.90;99.90
5118;DHT22;2578;51.622;7.046;2022-09-17T02:08:28;9.90;99.90
5118;DHT22;2578;51.622;7.046;2022-09-17T02:11:03;9.90;99.90
5118;DHT22;2578;51.622;7.046;2022-09-17T02:16:22;9.90;99.90
5118;DHT22;2578;51.622;7.046;2022-09-17T02:21:43;9.80;99.90
5118;DHT22;2578;51.622;7.046;2022-09-17T02:29:37;9.90;99.90
5118;DHT22;2578;51.622;7.046;2022-09-17T02:32:03;9.90;99.90
5118;DHT22;2578;51.622;7.046;2022-09-17T02:34:29;9.90;99.90
5118;DHT22;2578;51.622;7.046;2022-09-17T02:36:56;9.90;99.90
5118;DHT22;2578;51.622;7.046;2022-09-17T02:39:23;12.00;99.90
5118;DHT22;2578;51.622;7.046;2022-09-17T02:47:26;10.00;99.90
5118;DHT22;2578;51.622;7.046;2022-09-17T02:55:53;9.90;99.90
5118;DHT22;2578;51.622;7.046;2022-09-17T03:01:29;9.80;99.90
5118;DHT22;2578;51.622;7.046;2022-09-17T03:03:58;9.70;99.90
5118;DHT22;2578;51.622;7.046;2022-09-17T03:06:26;9.70;99.90
5118;DHT22;2578;51.622;7.046;2022-09-17T03:08:51;9.70;99.90
5118;DHT22;2578;51.622;7.046;2022-09-17T03:11:17;9.70;99.90
5118;DHT22;2578;51.622;7.046;2022-09-17T03:13:43;10.40;99.90
5118;DHT22;2578;51.622;7.046;2022-09-17T03:16:08;9.70;99.90
5118;DHT22;2578;51.622;7.046;2022-09-17T03:18:34;10.00;99.90
5118;DHT22;2578;51.622;7.046;2022-09-17T03:21:00;9.80;99.90
5118;DHT22;2578;51.622;7.046;2022-09-17T03:23:26;9.80;99.90
5118;DHT22;2578;51.622;7.046;2022-09-17T03:25:52;9.80;99.90
5118;DHT22;2578;51.622;7.046;2022-09-17T03:28:18;9.80;99.90
5118;DHT22;2578;51.622;7.046;2022-09-17T03:30:44;9.90;99.90
5118;DHT22;2578;51.622;7.046;2022-09-17T03:33:10;9.90;99.90
5118;DHT22;2578;51.622;7.046;2022-09-17T03:35:36;9.90;99.90
5118;DHT22;2578;51.622;7.046;2022-09-17T03:38:02;10.90;99.90
5118;DHT22;2578;51.622;7.046;2022-09-17T03:40:28;9.80;99.90
5118;DHT22;2578;51.622;7.046;2022-09-17T03:42:53;10.30;99.90
5118;DHT22;2578;51.622;7.046;2022-09-17T03:45:19;10.00;99.90
5118;DHT22;2578;51.622;7.046;2022-09-17T03:47:45;9.70;99.90
5118;DHT22;2578;51.622;7.046;2022-09-17T03:50:10;9.60;99.90
5118;DHT22;2578;51.622;7.046;2022-09-17T03:52:36;9.60;99.90
5118;DHT22;2578;51.622;7.046;2022-09-17T03:55:02;10.10;99.90
5118;DHT22;2578;51.622;7.046;2022-09-17T03:57:28;9.50;99.90
5118;DHT22;2578;51.622;7.046;2022-09-17T03:59:54;10.40;99.90
5118;DHT22;2578;51.622;7.046;2022-09-17T04:02:20;9.50;99.90
5118;DHT22;2578;51.622;7.046;2022-09-17T04:04:45;9.50;99.90
5118;DHT22;2578;51.622;7.046;2022-09-17T04:07:11;9.50;99.90
5118;DHT22;2578;51.622;7.046;2022-09-17T04:09:36;9.50;99.90
5118;DHT22;2578;51.622;7.046;2022-09-17T04:12:02;9.50;99.90
5118;DHT22;2578;51.622;7.046;2022-09-17T04:14:28;9.50;99.90
5118;DHT22;2578;51.622;7.046;2022-09-17T04:16:54;9.60;99.90
5118;DHT22;2578;51.622;7.046;2022-09-17T04:19:19;9.60;99.90
5118;DHT22;2578;51.622;7.046;2022-09-17T04:21:45;9.70;99.90
5118;DHT22;2578;51.622;7.046;2022-09-17T04:24:10;9.70;99.90
5118;DHT22;2578;51.622;7.046;2022-09-17T04:26:36;9.80;99.90
5118;DHT22;2578;51.622;7.046;2022-09-17T04:29:02;9.80;99.90
5118;DHT22;2578;51.622;7.046;2022-09-17T04:31:27;9.80;99.90
5118;DHT22;2578;51.622;7.046;2022-09-17T04:33:53;9.80;99.90
5118;DHT22;2578;51.622;7.046;2022-09-17T04:36:18;9.90;99.90
5118;DHT22;2578;51.622;7.046;2022-09-17T04:38:47;11.10;99.90
5118;DHT22;2578;51.622;7.046;2022-09-17T04:41:13;9.90;99.90
5118;DHT22;2578;51.622;7.046;2022-09-17T04:43:38;10.90;99.90
5118;DHT22;2578;51.622;7.046;2022-09-17T04:46:04;9.90;99.90
5118;DHT22;2578;51.622;7.046;2022-09-17T04:48:30;11.10;99.90
5118;DHT22;2578;51.622;7.046;2022-09-17T04:50:55;9.80;99.90
5118;DHT22;2578;51.622;7.046;2022-09-17T04:53:21;9.80;99.90
5118;DHT22;2578;51.622;7.046;2022-09-17T04:55:46;9.80;99.90
5118;DHT22;2578;51.622;7.046;2022-09-17T04:58:12;9.90;99.90
5118;DHT22;2578;51.622;7.046;2022-09-17T05:00:38;10.00;99.90
5118;DHT22;2578;51.622;7.046;2022-09-17T05:03:03;10.20;99.90
5118;DHT22;2578;51.622;7.046;2022-09-17T05:05:29;10.00;99.90
5118;DHT22;2578;51.622;7.046;2022-09-17T05:07:55;10.40;99.90
5118;DHT22;2578;51.622;7.046;2022-09-17T05:10:21;10.00;99.90
5118;DHT22;2578;51.622;7.046;2022-09-17T05:12:48;9.90;99.90
5118;DHT22;2578;51.622;7.046;2022-09-17T05:15:15;10.70;99.90
5118;DHT22;2578;51.622;7.046;2022-09-17T05:17:41;9.90;99.90
5118;DHT22;2578;51.622;7.046;2022-09-17T05:20:06;9.90;99.90
5118;DHT22;2578;51.622;7.046;2022-09-17T05:22:32;9.90;99.90
5118;DHT22;2578;51.622;7.046;2022-09-17T05:24:58;10.80;99.90
5118;DHT22;2578;51.622;7.046;2022-09-17T05:27:23;10.00;99.90
5118;DHT22;2578;51.622;7.046;2022-09-17T05:29:49;10.00;99.90
5118;DHT22;2578;51.622;7.046;2022-09-17T05:32:17;10.00;99.90
5118;DHT22;2578;51.622;7.046;2022-09-17T05:34:42;10.90;99.90
5118;DHT22;2578;51.622;7.046;2022-09-17T05:37:11;10.30;99.90
5118;DHT22;2578;51.622;7.046;2022-09-17T05:39:36;11.20;99.90
5118;DHT22;2578;51.622;7.046;2022-09-17T05:42:02;10.10;99.90
5118;DHT22;2578;51.622;7.046;2022-09-17T05:44:28;10.10;99.90
5118;DHT22;2578;51.622;7.046;2022-09-17T05:46:53;10.10;99.90
5118;DHT22;2578;51.622;7.046;2022-09-17T05:49:19;10.20;99.90
5118;DHT22;2578;51.622;7.046;2022-09-17T05:51:44;10.20;99.90
5118;DHT22;2578;51.622;7.046;2022-09-17T05:54:10;10.30;99.90
5118;DHT22;2578;51.622;7.046;2022-09-17T05:56:36;10.30;99.90
5118;DHT22;2578;51.622;7.046;2022-09-17T05:59:01;10.50;99.90
5118;DHT22;2578;51.622;7.046;2022-09-17T06:01:27;10.30;99.90
5118;DHT22;2578;51.622;7.046;2022-09-17T06:03:53;11.20;99.90
5118;DHT22;2578;51.622;7.046;2022-09-17T06:06:19;10.20;99.90
5118;DHT22;2578;51.622;7.046;2022-09-17T06:08:45;10.20;99.90
5118;DHT22;2578;51.622;7.046;2022-09-17T06:11:11;10.20;99.90
5118;DHT22;2578;51.622;7.046;2022-09-17T06:13:36;10.20;99.90
5118;DHT22;2578;51.622;7.046;2022-09-17T06:16:02;10.10;99.90
5118;DHT22;2578;51.622;7.046;2022-09-17T06:18:29;10.10;99.90
5118;DHT22;2578;51.622;7.046;2022-09-17T06:21:00;10.10;99.90
5118;DHT22;2578;51.622;7.046;2022-09-17T06:23:27;10.10;99.90
5118;DHT22;2578;51.622;7.046;2022-09-17T06:25:57;10.10;99.90
5118;DHT22;2578;51.622;7.046;2022-09-17T06:28:24;10.10;99.90
5118;DHT22;2578;51.622;7.046;2022-09-17T06:30:49;10.00;99.90
5118;DHT22;2578;51.622;7.046;2022-09-17T06:33:19;10.10;99.90
5118;DHT22;2578;51.622;7.046;2022-09-17T06:35:45;10.00;99.90
5118;DHT22;2578;51.622;7.046;2022-09-17T06:38:10;10.10;99.90
5118;DHT22;2578;51.622;7.046;2022-09-17T06:40:36;10.20;99.90
5118;DHT22;2578;51.622;7.046;2022-09-17T06:43:02;9.40;99.90
5118;DHT22;2578;51.622;7.046;2022-09-17T06:45:28;11.80;99.90
5118;DHT22;2578;51.622;7.046;2022-09-17T06:47:53;10.30;99.90
5118;DHT22;2578;51.622;7.046;2022-09-17T06:50:19;10.30;99.90
5118;DHT22;2578;51.622;7.046;2022-09-17T06:52:53;10.30;99.90
5118;DHT22;2578;51.622;7.046;2022-09-17T06:55:19;10.30;99.90
5118;DHT22;2578;51.622;7.046;2022-09-17T06:57:45;10.30;99.90
5118;DHT22;2578;51.622;7.046;2022-09-17T07:00:12;10.20;99.90
5118;DHT22;2578;51.622;7.046;2022-09-17T07:02:38;10.10;99.90
5118;DHT22;2578;51.622;7.046;2022-09-17T07:05:04;10.10;99.90
5118;DHT22;2578;51.622;7.046;2022-09-17T07:07:30;10.10;99.90
5118;DHT22;2578;51.622;7.046;2022-09-17T07:09:56;10.20;99.90
5118;DHT22;2578;51.622;7.046;2022-09-17T07:12:21;10.50;99.90
5118;DHT22;2578;51.622;7.046;2022-09-17T07:14:48;9.90;99.90
5118;DHT22;2578;51.622;7.046;2022-09-17T07:17:14;11.00;99.90
5118;DHT22;2578;51.622;7.046;2022-09-17T07:19:39;11.00;99.90
5118;DHT22;2578;51.622;7.046;2022-09-17T07:22:05;11.30;99.90
5118;DHT22;2578;51.622;7.046;2022-09-17T07:24:31;11.20;99.90
5118;DHT22;2578;51.622;7.046;2022-09-17T07:26:57;12.10;99.90
5118;DHT22;2578;51.622;7.046;2022-09-17T07:29:22;11.70;99.90
5118;DHT22;2578;51.622;7.046;2022-09-17T07:31:54;11.10;99.90
5118;DHT22;2578;51.622;7.046;2022-09-17T07:36:46;11.40;99.90
5118;DHT22;2578;51.622;7.046;2022-09-17T07:39:12;11.60;99.90
5118;DHT22;2578;51.622;7.046;2022-09-17T07:41:39;11.90;99.90
5118;DHT22;2578;51.622;7.046;2022-09-17T07:44:05;11.80;99.90
5118;DHT22;2578;51.622;7.046;2022-09-17T07:46:34;11.60;99.90
5118;DHT22;2578;51.622;7.046;2022-09-17T07:49:01;11.50;99.90
5118;DHT22;2578;51.622;7.046;2022-09-17T07:51:27;11.70;99.90
5118;DHT22;2578;51.622;7.046;2022-09-17T07:53:54;11.90;99.90
5118;DHT22;2578;51.622;7.046;2022-09-17T07:56:20;12.10;99.90
5118;DHT22;2578;51.622;7.046;2022-09-17T07:58:46;12.40;99.90
5118;DHT22;2578;51.622;7.046;2022-09-17T08:01:14;12.70;99.90
5118;DHT22;2578;51.622;7.046;2022-09-17T08:03:41;12.70;99.90
5118;DHT22;2578;51.622;7.046;2022-09-17T08:06:11;12.50;99.90
5118;DHT22;2578;51.622;7.046;2022-09-17T08:08:38;12.60;99.90
5118;DHT22;2578;51.622;7.046;2022-09-17T08:11:07;12.80;99.90
5118;DHT22;2578;51.622;7.046;2022-09-17T08:13:33;13.50;99.90
5118;DHT22;2578;51.622;7.046;2022-09-17T08:16:04;12.90;99.90
5118;DHT22;2578;51.622;7.046;2022-09-17T08:18:30;13.10;99.90
5118;DHT22;2578;51.622;7.046;2022-09-17T08:20:57;13.00;99.90
5118;DHT22;2578;51.622;7.046;2022-09-17T08:23:27;13.20;99.90
5118;DHT22;2578;51.622;7.046;2022-09-17T08:25:57;13.20;99.90
5118;DHT22;2578;51.622;7.046;2022-09-17T08:28:25;13.30;99.90
5118;DHT22;2578;51.622;7.046;2022-09-17T08:30:52;13.30;99.90
5118;DHT22;2578;51.622;7.046;2022-09-17T08:33:18;13.50;99.90
5118;DHT22;2578;51.622;7.046;2022-09-17T08:35:53;13.40;99.90
5118;DHT22;2578;51.622;7.046;2022-09-17T08:38:19;13.40;99.90
5118;DHT22;2578;51.622;7.046;2022-09-17T08:46:22;13.70;99.90
5118;DHT22;2578;51.622;7.046;2022-09-17T08:48:54;13.80;99.90
5118;DHT22;2578;51.622;7.046;2022-09-17T08:56:27;15.00;99.90
5118;DHT22;2578;51.622;7.046;2022-09-17T09:07:10;14.50;99.90
5118;DHT22;2578;51.622;7.046;2022-09-17T09:09:42;14.60;99.90
5118;DHT22;2578;51.622;7.046;2022-09-17T09:12:33;14.40;99.90
5118;DHT22;2578;51.622;7.046;2022-09-17T09:15:03;14.60;99.90
5118;DHT22;2578;51.622;7.046;2022-09-17T09:17:40;14.60;99.90
5118;DHT22;2578;51.622;7.046;2022-09-17T09:20:20;14.50;99.90
5118;DHT22;2578;51.622;7.046;2022-09-17T09:22:50;14.50;99.90
5118;DHT22;2578;51.622;7.046;2022-09-17T09:25:23;14.60;99.90
5118;DHT22;2578;51.622;7.046;2022-09-17T09:33:37;15.20;99.90
5118;DHT22;2578;51.622;7.046;2022-09-17T09:36:09;15.00;99.90
5118;DHT22;2578;51.622;7.046;2022-09-17T09:38:53;14.90;99.90
5118;DHT22;2578;51.622;7.046;2022-09-17T09:41:33;15.30;99.90
5118;DHT22;2578;51.622;7.046;2022-09-17T09:44:08;15.30;99.90
5118;DHT22;2578;51.622;7.046;2022-09-17T09:57:47;14.40;99.90
5118;DHT22;2578;51.622;7.046;2022-09-17T10:03:15;15.00;99.90
5118;DHT22;2578;51.622;7.046;2022-09-17T10:05:50;14.90;99.90
5118;DHT22;2578;51.622;7.046;2022-09-17T10:08:16;14.90;99.90
5118;DHT22;2578;51.622;7.046;2022-09-17T10:11:05;15.30;99.90
5118;DHT22;2578;51.622;7.046;2022-09-17T10:16:25;15.80;99.90
5118;DHT22;2578;51.622;7.046;2022-09-17T10:21:39;15.60;99.90
5118;DHT22;2578;51.622;7.046;2022-09-17T10:24:29;15.40;99.90
5118;DHT22;2578;51.622;7.046;2022-09-17T10:27:12;14.80;99.90
5118;DHT22;2578;51.622;7.046;2022-09-17T10:29:43;13.60;99.90
5118;DHT22;2578;51.622;7.046;2022-09-17T10:32:18;12.90;99.90
5118;DHT22;2578;51.622;7.046;2022-09-17T10:37:49;12.40;99.90
5118;DHT22;2578;51.622;7.046;2022-09-17T10:45:44;13.50;99.90
5118;DHT22;2578;51.622;7.046;2022-09-17T10:48:20;13.80;99.90
5118;DHT22;2578;51.622;7.046;2022-09-17T10:50:54;14.00;99.90
5118;DHT22;2578;51.622;7.046;2022-09-17T10:53:21;14.00;99.90
5118;DHT22;2578;51.622;7.046;2022-09-17T11:35:52;14.30;99.90
5118;DHT22;2578;51.622;7.046;2022-09-17T11:38:29;14.50;99.90
5118;DHT22;2578;51.622;7.046;2022-09-17T11:41:03;15.20;99.90
5118;DHT22;2578;51.622;7.046;2022-09-17T11:43:36;15.10;99.90
5118;DHT22;2578;51.622;7.046;2022-09-17T11:46:16;15.40;99.90
5118;DHT22;2578;51.622;7.046;2022-09-17T11:51:32;15.90;99.90
5118;DHT22;2578;51.622;7.046;2022-09-17T11:56:50;14.70;99.90
5118;DHT22;2578;51.622;7.046;2022-09-17T11:59:36;14.50;99.90
5118;DHT22;2578;51.622;7.046;2022-09-17T12:02:29;13.80;99.90
5118;DHT22;2578;51.622;7.046;2022-09-17T12:05:03;13.30;99.90
5118;DHT22;2578;51.622;7.046;2022-09-17T12:10:40;12.30;99.90
5118;DHT22;2578;51.622;7.046;2022-09-17T12:15:50;12.30;99.90
5118;DHT22;2578;51.622;7.046;2022-09-17T12:20:56;12.30;99.90
5118;DHT22;2578;51.622;7.046;2022-09-17T12:23:44;12.30;99.90
5118;DHT22;2578;51.622;7.046;2022-09-17T12:31:52;11.20;99.90
5118;DHT22;2578;51.622;7.046;2022-09-17T12:40:50;15.40;99.90
5118;DHT22;2578;51.622;7.046;2022-09-17T12:59:13;13.00;99.90
5118;DHT22;2578;51.622;7.046;2022-09-17T13:02:11;13.10;99.90
5118;DHT22;2578;51.622;7.046;2022-09-17T13:08:16;13.70;99.90
5118;DHT22;2578;51.622;7.046;2022-09-17T13:10:26;14.70;99.90
5118;DHT22;2578;51.622;7.046;2022-09-17T13:13:22;14.80;99.90
5118;DHT22;2578;51.622;7.046;2022-09-17T13:16:16;14.80;99.90
5118;DHT22;2578;51.622;7.046;2022-09-17T13:18:50;14.30;99.90
5118;DHT22;2578;51.622;7.046;2022-09-17T13:21:38;13.50;99.90
5118;DHT22;2578;51.622;7.046;2022-09-17T13:24:25;12.90;99.90
5118;DHT22;2578;51.622;7.046;2022-09-17T13:26:54;12.70;99.90
5118;DHT22;2578;51.622;7.046;2022-09-17T13:32:08;12.70;99.90
5118;DHT22;2578;51.622;7.046;2022-09-17T13:34:33;13.00;99.90
5118;DHT22;2578;51.622;7.046;2022-09-17T13:37:02;12.90;99.90
5118;DHT22;2578;51.622;7.046;2022-09-17T13:42:25;12.60;99.90
5118;DHT22;2578;51.622;7.046;2022-09-17T13:45:16;12.60;99.90
5118;DHT22;2578;51.622;7.046;2022-09-17T13:47:53;13.00;99.90
5118;DHT22;2578;51.622;7.046;2022-09-17T13:50:39;13.80;99.90
5118;DHT22;2578;51.622;7.046;2022-09-17T13:55:36;13.40;99.90
5118;DHT22;2578;51.622;7.046;2022-09-17T13:58:06;13.30;99.90
5118;DHT22;2578;51.622;7.046;2022-09-17T14:00:55;12.80;99.90
5118;DHT22;2578;51.622;7.046;2022-09-17T14:05:56;12.50;99.90
5118;DHT22;2578;51.622;7.046;2022-09-17T14:09:06;12.40;99.90
5118;DHT22;2578;51.622;7.046;2022-09-17T14:13:46;12.40;99.90
5118;DHT22;2578;51.622;7.046;2022-09-17T14:24:56;13.60;99.90
5118;DHT22;2578;51.622;7.046;2022-09-17T14:28:01;13.90;99.90
5118;DHT22;2578;51.622;7.046;2022-09-17T14:30:32;14.20;99.90
5118;DHT22;2578;51.622;7.046;2022-09-17T14:35:42;14.10;99.90
5118;DHT22;2578;51.622;7.046;2022-09-17T14:40:46;14.60;99.90
5118;DHT22;2578;51.622;7.046;2022-09-17T14:48:32;14.30;99.90
5118;DHT22;2578;51.622;7.046;2022-09-17T14:53:42;16.40;99.90
5118;DHT22;2578;51.622;7.046;2022-09-17T14:56:11;15.10;99.90
5118;DHT22;2578;51.622;7.046;2022-09-17T14:58:42;15.10;99.90
5118;DHT22;2578;51.622;7.046;2022-09-17T15:01:27;15.00;99.90
5118;DHT22;2578;51.622;7.046;2022-09-17T15:06:38;14.90;99.90
5118;DHT22;2578;51.622;7.046;2022-09-17T15:09:04;14.70;99.90
5118;DHT22;2578;51.622;7.046;2022-09-17T15:11:34;14.60;99.90
5118;DHT22;2578;51.622;7.046;2022-09-17T15:14:04;13.40;99.90
5118;DHT22;2578;51.622;7.046;2022-09-17T15:16:31;14.70;99.90
5118;DHT22;2578;51.622;7.046;2022-09-17T15:19:01;14.30;99.90
5118;DHT22;2578;51.622;7.046;2022-09-17T15:21:40;14.10;99.90
5118;DHT22;2578;51.622;7.046;2022-09-17T15:26:54;13.80;99.90
5118;DHT22;2578;51.622;7.046;2022-09-17T15:29:23;13.70;99.90
5118;DHT22;2578;51.622;7.046;2022-09-17T15:31:50;13.60;99.90
5118;DHT22;2578;51.622;7.046;2022-09-17T15:34:16;13.60;99.90
5118;DHT22;2578;51.622;7.046;2022-09-17T15:37:06;13.80;99.90
5118;DHT22;2578;51.622;7.046;2022-09-17T15:39:41;13.50;99.90
5118;DHT22;2578;51.622;7.046;2022-09-17T15:44:43;14.20;99.90
5118;DHT22;2578;51.622;7.046;2022-09-17T15:50:15;13.70;99.90
5118;DHT22;2578;51.622;7.046;2022-09-17T15:52:42;13.90;99.90
5118;DHT22;2578;51.622;7.046;2022-09-17T15:58:36;14.20;99.90
5118;DHT22;2578;51.622;7.046;2022-09-17T16:11:14;12.70;99.90
5118;DHT22;2578;51.622;7.046;2022-09-17T16:13:40;12.70;99.90
5118;DHT22;2578;51.622;7.046;2022-09-17T16:16:06;12.80;99.90
5118;DHT22;2578;51.622;7.046;2022-09-17T16:18:33;12.10;99.90
5118;DHT22;2578;51.622;7.046;2022-09-17T16:20:58;11.90;99.90
5118;DHT22;2578;51.622;7.046;2022-09-17T16:23:25;11.90;99.90
5118;DHT22;2578;51.622;7.046;2022-09-17T16:25:51;11.80;99.90
5118;DHT22;2578;51.622;7.046;2022-09-17T16:28:18;11.70;99.90
5118;DHT22;2578;51.622;7.046;2022-09-17T16:30:47;11.70;99.90
5118;DHT22;2578;51.622;7.046;2022-09-17T16:33:15;11.80;99.90
5118;DHT22;2578;51.622;7.046;2022-09-17T16:35:42;11.70;99.90
5118;DHT22;2578;51.622;7.046;2022-09-17T16:38:09;11.70;99.90
5118;DHT22;2578;51.622;7.046;2022-09-17T16:40:42;11.70;99.90
5118;DHT22;2578;51.622;7.046;2022-09-17T16:43:08;11.70;99.90
5118;DHT22;2578;51.622;7.046;2022-09-17T16:45:34;11.60;99.90
5118;DHT22;2578;51.622;7.046;2022-09-17T16:48:00;11.80;99.90
5118;DHT22;2578;51.622;7.046;2022-09-17T16:50:26;12.10;99.90
5118;DHT22;2578;51.622;7.046;2022-09-17T16:52:52;12.10;99.90
5118;DHT22;2578;51.622;7.046;2022-09-17T16:55:18;12.20;99.90
5118;DHT22;2578;51.622;7.046;2022-09-17T16:57:44;12.30;99.90
5118;DHT22;2578;51.622;7.046;2022-09-17T17:00:12;12.20;99.90
5118;DHT22;2578;51.622;7.046;2022-09-17T17:02:41;12.20;99.90
5118;DHT22;2578;51.622;7.046;2022-09-17T17:05:08;12.10;99.90
5118;DHT22;2578;51.622;7.046;2022-09-17T17:07:36;12.10;99.90
5118;DHT22;2578;51.622;7.046;2022-09-17T17:10:03;12.20;99.90
5118;DHT22;2578;51.622;7.046;2022-09-17T17:12:29;12.20;99.90
5118;DHT22;2578;51.622;7.046;2022-09-17T17:14:55;12.20;99.90
5118;DHT22;2578;51.622;7.046;2022-09-17T17:17:21;12.20;99.90
5118;DHT22;2578;51.622;7.046;2022-09-17T17:19:47;13.70;99.90
5118;DHT22;2578;51.622;7.046;2022-09-17T17:22:13;12.20;99.90
5118;DHT22;2578;51.622;7.046;2022-09-17T17:24:39;12.20;99.90
5118;DHT22;2578;51.622;7.046;2022-09-17T17:27:05;12.30;99.90
5118;DHT22;2578;51.622;7.046;2022-09-17T17:29:31;12.10;99.90
5118;DHT22;2578;51.622;7.046;2022-09-17T17:31:56;11.90;99.90
5118;DHT22;2578;51.622;7.046;2022-09-17T17:34:22;11.80;99.90
5118;DHT22;2578;51.622;7.046;2022-09-17T17:36:48;11.70;99.90
5118;DHT22;2578;51.622;7.046;2022-09-17T17:39:14;11.60;99.90
5118;DHT22;2578;51.622;7.046;2022-09-17T17:41:40;11.50;99.90
5118;DHT22;2578;51.622;7.046;2022-09-17T17:44:05;11.50;99.90
5118;DHT22;2578;51.622;7.046;2022-09-17T17:46:31;11.50;99.90
5118;DHT22;2578;51.622;7.046;2022-09-17T17:48:57;11.40;99.90
5118;DHT22;2578;51.622;7.046;2022-09-17T17:51:22;11.40;99.90
5118;DHT22;2578;51.622;7.046;2022-09-17T17:53:48;11.40;99.90
5118;DHT22;2578;51.622;7.046;2022-09-17T17:56:15;11.30;99.90
5118;DHT22;2578;51.622;7.046;2022-09-17T17:58:41;11.30;99.90
5118;DHT22;2578;51.622;7.046;2022-09-17T18:01:19;11.20;99.90
5118;DHT22;2578;51.622;7.046;2022-09-17T18:03:45;11.20;99.90
5118;DHT22;2578;51.622;7.046;2022-09-17T18:06:11;11.20;99.90
5118;DHT22;2578;51.622;7.046;2022-09-17T18:08:38;11.10;99.90
5118;DHT22;2578;51.622;7.046;2022-09-17T18:11:05;11.10;99.90
5118;DHT22;2578;51.622;7.046;2022-09-17T18:13:36;12.10;99.90
5118;DHT22;2578;51.622;7.046;2022-09-17T18:16:03;11.00;99.90
5118;DHT22;2578;51.622;7.046;2022-09-17T18:18:35;11.10;99.90
5118;DHT22;2578;51.622;7.046;2022-09-17T18:21:04;11.10;99.90
5118;DHT22;2578;51.622;7.046;2022-09-17T18:23:34;11.10;99.90
5118;DHT22;2578;51.622;7.046;2022-09-17T18:26:01;11.20;99.90
5118;DHT22;2578;51.622;7.046;2022-09-17T18:28:28;12.10;99.90
5118;DHT22;2578;51.622;7.046;2022-09-17T18:30:54;11.30;99.90
5118;DHT22;2578;51.622;7.046;2022-09-17T18:33:22;11.30;99.90
5118;DHT22;2578;51.622;7.046;2022-09-17T18:35:52;11.30;99.90
5118;DHT22;2578;51.622;7.046;2022-09-17T18:38:22;11.30;99.90
5118;DHT22;2578;51.622;7.046;2022-09-17T18:40:49;9.90;99.90
5118;DHT22;2578;51.622;7.046;2022-09-17T18:43:15;11.40;99.90
5118;DHT22;2578;51.622;7.046;2022-09-17T18:45:40;12.90;99.90
5118;DHT22;2578;51.622;7.046;2022-09-17T18:48:07;11.40;99.90
5118;DHT22;2578;51.622;7.046;2022-09-17T18:50:33;11.40;99.90
5118;DHT22;2578;51.622;7.046;2022-09-17T18:53:00;11.40;99.90
5118;DHT22;2578;51.622;7.046;2022-09-17T18:55:25;11.60;99.90
5118;DHT22;2578;51.622;7.046;2022-09-17T18:57:51;11.40;99.90
5118;DHT22;2578;51.622;7.046;2022-09-17T19:00:18;11.40;99.90
5118;DHT22;2578;51.622;7.046;2022-09-17T19:02:48;11.40;99.90
5118;DHT22;2578;51.622;7.046;2022-09-17T19:05:15;11.30;99.90
5118;DHT22;2578;51.622;7.046;2022-09-17T19:07:47;11.20;99.90
5118;DHT22;2578;51.622;7.046;2022-09-17T19:10:13;11.20;99.90
5118;DHT22;2578;51.622;7.046;2022-09-17T19:12:39;11.20;99.90
5118;DHT22;2578;51.622;7.046;2022-09-17T19:15:06;11.20;99.90
5118;DHT22;2578;51.622;7.046;2022-09-17T19:17:33;11.40;99.90
5118;DHT22;2578;51.622;7.046;2022-09-17T19:19:59;11.40;99.90
5118;DHT22;2578;51.622;7.046;2022-09-17T19:22:25;11.60;99.90
5118;DHT22;2578;51.622;7.046;2022-09-17T19:24:50;11.60;99.90
5118;DHT22;2578;51.622;7.046;2022-09-17T19:27:16;11.60;99.90
5118;DHT22;2578;51.622;7.046;2022-09-17T19:29:41;11.60;99.90
5118;DHT22;2578;51.622;7.046;2022-09-17T19:32:07;11.60;99.90
5118;DHT22;2578;51.622;7.046;2022-09-17T19:34:32;11.50;99.90
5118;DHT22;2578;51.622;7.046;2022-09-17T19:36:58;11.50;99.90
5118;DHT22;2578;51.622;7.046;2022-09-17T19:39:24;11.50;99.90
5118;DHT22;2578;51.622;7.046;2022-09-17T19:41:49;11.60;99.90
5118;DHT22;2578;51.622;7.046;2022-09-17T19:44:15;11.70;99.90
5118;DHT22;2578;51.622;7.046;2022-09-17T19:46:41;11.70;99.90
5118;DHT22;2578;51.622;7.046;2022-09-17T19:49:06;11.60;99.90
5118;DHT22;2578;51.622;7.046;2022-09-17T19:51:34;11.60;99.90
5118;DHT22;2578;51.622;7.046;2022-09-17T19:53:59;11.60;99.90
5118;DHT22;2578;51.622;7.046;2022-09-17T19:56:26;11.70;99.90
5118;DHT22;2578;51.622;7.046;2022-09-17T19:58:52;11.60;99.90
5118;DHT22;2578;51.622;7.046;2022-09-17T20:01:18;11.60;99.90
5118;DHT22;2578;51.622;7.046;2022-09-17T20:03:45;11.60;99.90
5118;DHT22;2578;51.622;7.046;2022-09-17T20:06:13;11.50;99.90
5118;DHT22;2578;51.622;7.046;2022-09-17T20:08:46;11.40;99.90
5118;DHT22;2578;51.622;7.046;2022-09-17T20:11:13;11.00;99.90
5118;DHT22;2578;51.622;7.046;2022-09-17T20:13:39;11.30;99.90
5118;DHT22;2578;51.622;7.046;2022-09-17T20:16:13;11.20;99.90
5118;DHT22;2578;51.622;7.046;2022-09-17T20:18:39;11.20;99.90
5118;DHT22;2578;51.622;7.046;2022-09-17T20:21:10;11.00;99.90
5118;DHT22;2578;51.622;7.046;2022-09-17T20:23:35;11.00;99.90
5118;DHT22;2578;51.622;7.046;2022-09-17T20:26:02;11.00;99.90
5118;DHT22;2578;51.622;7.046;2022-09-17T20:28:28;11.00;99.90
5118;DHT22;2578;51.622;7.046;2022-09-17T20:31:10;10.90;99.90